Corrientes, Argentina

10:06 PM ART on October 21, 2014 (GMT -0300)
Corrientes | Change Station
CLOSE
Current Station
Airport
Location: Corrientes,
Elevation: 203 ft
Nearby Weather Stations

Elev 203 ft 27.45 °S, 58.76 °W | Updated 6 minutes ago

Clear
Clear
70 °F
Feels Like 70 °F
N
5
Wind Variable Wind from ESE

Today
High -- | Low -- °F
--% Chance of Precip.
Yesterday
High -- | Low -- °F
Precip. -- in
6:13 AM 7:06 PM
Waning Crescent, 4% visible
Pressure 30.04 in
Visibility -9999.0 miles
Clouds
Dew Point 57 °F
Humidity 64%
Rainfall 0.00 in
Snow Depth Not available.
UV Not available.
Pollen Not available.
Air Quality Not available.
Flu Activity Not available.
METAR SARC 220100Z 11004KT CAVOK 21/14 Q1017

More Conditions Fewer Conditions

Pressure 30.04 in
Visibility -9999.0 miles
Clouds
Dew Point 57 °F
Humidity 64%
Rainfall 0.00 in
Snow Depth Not available.
UV Not available.
Pollen Not available.
Air Quality Not available.
Flu Activity Not available.
METAR SARC 220100Z 11004KT CAVOK 21/14 Q1017

More Conditions Fewer Conditions

10-Day Weather Forecast

Almanac

Astronomy

Oct. 21, 2014 Rise Set
Actual Time 6:13 AM ART 7:06 PM ART
Civil Twilight 5:49 AM ART 7:30 PM ART
Nautical Twilight 5:21 AM ART 7:58 PM ART
Astronomical Twilight 4:52 AM ART 8:27 PM ART
Moon 4:45 AM ART (10/21) 5:15 PM ART (10/21)
Length of Visible Light 13h 41m
Length of Day
12h 53m
Tomorrow will be 1m 33s longer.
Waning Crescent, 4% of the Moon is Illuminated
Today
Waning Crescent
Oct 23
New
Oct 30
First Quarter
Nov 6
Full
Nov 14
Last Quarter

Today's Extremes

Country Highs Country Lows

Community

WunderPhotos

Upload Photos

1,763,836 photos uploaded!

Nearby

Snow Depth

Not available.

Earthquake Activity

City Distance Mag. Time & Date
No recent earthquake activity has been reported nearby.
Minimum magnitude displayed is 2.5.

Coastal Water Temperatures

Place Temperature
No Stations Reporting

Nearby Weather Stations